sensor_id;sensor_type;location;lat;lon;timestamp;pressure;altitude;pressure_sealevel;temperature;humidity
36380;BME280;22411;53.016;18.632;2023-01-26T00:01:24;101549.31;;;-0.62;100.00
36380;BME280;22411;53.016;18.632;2023-01-26T00:03:54;101543.34;;;-0.59;100.00
36380;BME280;22411;53.016;18.632;2023-01-26T00:06:22;101545.06;;;-0.61;100.00
36380;BME280;22411;53.016;18.632;2023-01-26T00:08:52;101547.59;;;-0.57;100.00
36380;BME280;22411;53.016;18.632;2023-01-26T00:11:22;101529.78;;;-0.61;100.00
36380;BME280;22411;53.016;18.632;2023-01-26T00:13:54;101532.38;;;-0.66;100.00
36380;BME280;22411;53.016;18.632;2023-01-26T00:16:26;101527.25;;;-0.61;100.00
36380;BME280;22411;53.016;18.632;2023-01-26T00:18:52;101526.41;;;-0.62;100.00
36380;BME280;22411;53.016;18.632;2023-01-26T00:21:21;101527.22;;;-0.58;100.00
36380;BME280;22411;53.016;18.632;2023-01-26T00:23:48;101521.28;;;-0.59;100.00
36380;BME280;22411;53.016;18.632;2023-01-26T00:26:23;101523.84;;;-0.62;100.00
36380;BME280;22411;53.016;18.632;2023-01-26T00:28:50;101525.53;;;-0.59;100.00
36380;BME280;22411;53.016;18.632;2023-01-26T00:31:18;101515.34;;;-0.61;100.00
36380;BME280;22411;53.016;18.632;2023-01-26T00:33:45;101519.59;;;-0.60;100.00
36380;BME280;22411;53.016;18.632;2023-01-26T00:36:11;101514.53;;;-0.63;100.00
36380;BME280;22411;53.016;18.632;2023-01-26T00:38:38;101517.91;;;-0.64;100.00
36380;BME280;22411;53.016;18.632;2023-01-26T00:41:04;101515.38;;;-0.62;100.00
36380;BME280;22411;53.016;18.632;2023-01-26T00:43:30;101516.25;;;-0.69;100.00
36380;BME280;22411;53.016;18.632;2023-01-26T00:45:56;101516.25;;;-0.66;100.00
36380;BME280;22411;53.016;18.632;2023-01-26T00:48:22;101514.56;;;-0.67;100.00
36380;BME280;22411;53.016;18.632;2023-01-26T00:50:51;101517.09;;;-0.69;100.00
36380;BME280;22411;53.016;18.632;2023-01-26T00:53:18;101514.56;;;-0.70;100.00
36380;BME280;22411;53.016;18.632;2023-01-26T00:55:44;101517.94;;;-0.67;100.00
36380;BME280;22411;53.016;18.632;2023-01-26T00:58:10;101510.28;;;-0.64;100.00
36380;BME280;22411;53.016;18.632;2023-01-26T01:00:37;101508.56;;;-0.60;100.00
36380;BME280;22411;53.016;18.632;2023-01-26T01:03:04;101502.63;;;-0.61;100.00
36380;BME280;22411;53.016;18.632;2023-01-26T01:05:32;101504.31;;;-0.60;100.00
36380;BME280;22411;53.016;18.632;2023-01-26T01:07:58;101497.56;;;-0.62;100.00
36380;BME280;22411;53.016;18.632;2023-01-26T01:10:24;101497.53;;;-0.64;100.00
36380;BME280;22411;53.016;18.632;2023-01-26T01:12:54;101490.75;;;-0.62;100.00
36380;BME280;22411;53.016;18.632;2023-01-26T01:15:21;101484.78;;;-0.59;100.00
36380;BME280;22411;53.016;18.632;2023-01-26T01:17:49;101482.25;;;-0.58;100.00
36380;BME280;22411;53.016;18.632;2023-01-26T01:20:18;101486.47;;;-0.57;100.00
36380;BME280;22411;53.016;18.632;2023-01-26T01:22:45;101485.63;;;-0.56;100.00
36380;BME280;22411;53.016;18.632;2023-01-26T01:25:11;101483.06;;;-0.56;100.00
36380;BME280;22411;53.016;18.632;2023-01-26T01:27:37;101482.22;;;-0.55;100.00
36380;BME280;22411;53.016;18.632;2023-01-26T01:30:04;101481.38;;;-0.55;100.00
36380;BME280;22411;53.016;18.632;2023-01-26T01:32:35;101474.59;;;-0.59;100.00
36380;BME280;22411;53.016;18.632;2023-01-26T01:35:02;101477.16;;;-0.61;100.00
36380;BME280;22411;53.016;18.632;2023-01-26T01:37:28;101477.13;;;-0.59;100.00
36380;BME280;22411;53.016;18.632;2023-01-26T01:39:54;101471.19;;;-0.58;100.00
36380;BME280;22411;53.016;18.632;2023-01-26T01:42:21;101471.19;;;-0.57;100.00
36380;BME280;22411;53.016;18.632;2023-01-26T01:47:55;101472.06;;;-0.61;100.00
36380;BME280;22411;53.016;18.632;2023-01-26T01:50:23;101475.47;;;-0.62;100.00
36380;BME280;22411;53.016;18.632;2023-01-26T01:52:50;101467.84;;;-0.62;100.00
36380;BME280;22411;53.016;18.632;2023-01-26T01:55:18;101461.06;;;-0.63;100.00
36380;BME280;22411;53.016;18.632;2023-01-26T01:57:52;101464.47;;;-0.65;100.00
36380;BME280;22411;53.016;18.632;2023-01-26T02:00:21;101465.31;;;-0.66;100.00
36380;BME280;22411;53.016;18.632;2023-01-26T02:02:53;101469.53;;;-0.65;100.00
36380;BME280;22411;53.016;18.632;2023-01-26T02:08:37;101450.00;;;-0.62;100.00
36380;BME280;22411;53.016;18.632;2023-01-26T02:11:07;101445.75;;;-0.61;100.00
36380;BME280;22411;53.016;18.632;2023-01-26T02:13:35;101436.44;;;-0.62;100.00
36380;BME280;22411;53.016;18.632;2023-01-26T02:16:01;101436.44;;;-0.64;100.00
36380;BME280;22411;53.016;18.632;2023-01-26T02:18:28;101430.44;;;-0.58;100.00
36380;BME280;22411;53.016;18.632;2023-01-26T02:21:00;101437.22;;;-0.56;100.00
36380;BME280;22411;53.016;18.632;2023-01-26T02:26:14;101421.97;;;-0.57;100.00
36380;BME280;22411;53.016;18.632;2023-01-26T02:28:43;101421.94;;;-0.52;100.00
36380;BME280;22411;53.016;18.632;2023-01-26T02:31:10;101410.03;;;-0.54;100.00
36380;BME280;22411;53.016;18.632;2023-01-26T02:33:38;101402.41;;;-0.54;100.00
36380;BME280;22411;53.016;18.632;2023-01-26T02:36:04;101410.91;;;-0.56;100.00
36380;BME280;22411;53.016;18.632;2023-01-26T02:38:43;101415.16;;;-0.58;100.00
36380;BME280;22411;53.016;18.632;2023-01-26T02:41:14;101409.19;;;-0.54;100.00
36380;BME280;22411;53.016;18.632;2023-01-26T02:44:07;101404.94;;;-0.52;100.00
36380;BME280;22411;53.016;18.632;2023-01-26T02:46:34;101404.09;;;-0.54;100.00
36380;BME280;22411;53.016;18.632;2023-01-26T02:49:00;101404.94;;;-0.52;100.00
36380;BME280;22411;53.016;18.632;2023-01-26T02:51:44;101411.69;;;-0.49;100.00
36380;BME280;22411;53.016;18.632;2023-01-26T02:54:10;101403.25;;;-0.51;100.00
36380;BME280;22411;53.016;18.632;2023-01-26T02:56:56;101394.72;;;-0.47;100.00
36380;BME280;22411;53.016;18.632;2023-01-26T02:59:22;101390.50;;;-0.50;100.00
36380;BME280;22411;53.016;18.632;2023-01-26T03:01:49;101386.22;;;-0.46;100.00
36380;BME280;22411;53.016;18.632;2023-01-26T03:04:17;101385.34;;;-0.45;100.00
36380;BME280;22411;53.016;18.632;2023-01-26T03:06:43;101386.19;;;-0.43;100.00
36380;BME280;22411;53.016;18.632;2023-01-26T03:09:09;101383.66;;;-0.48;100.00
36380;BME280;22411;53.016;18.632;2023-01-26T03:11:35;101382.81;;;-0.45;100.00
36380;BME280;22411;53.016;18.632;2023-01-26T03:14:11;101378.56;;;-0.45;100.00
36380;BME280;22411;53.016;18.632;2023-01-26T03:16:37;101373.47;;;-0.45;100.00
36380;BME280;22411;53.016;18.632;2023-01-26T03:19:05;101375.13;;;-0.41;100.00
36380;BME280;22411;53.016;18.632;2023-01-26T03:21:34;101370.91;;;-0.42;100.00
36380;BME280;22411;53.016;18.632;2023-01-26T03:24:18;101368.31;;;-0.40;100.00
36380;BME280;22411;53.016;18.632;2023-01-26T03:27:03;101371.72;;;-0.43;100.00
36380;BME280;22411;53.016;18.632;2023-01-26T03:29:50;101370.91;;;-0.42;100.00
36380;BME280;22411;53.016;18.632;2023-01-26T03:32:16;101368.34;;;-0.42;100.00
36380;BME280;22411;53.016;18.632;2023-01-26T03:34:43;101373.50;;;-0.46;100.00
36380;BME280;22411;53.016;18.632;2023-01-26T03:37:09;101370.94;;;-0.48;100.00
36380;BME280;22411;53.016;18.632;2023-01-26T03:39:35;101362.50;;;-0.51;100.00
36380;BME280;22411;53.016;18.632;2023-01-26T03:42:20;101363.38;;;-0.52;100.00
36380;BME280;22411;53.016;18.632;2023-01-26T03:45:05;101363.38;;;-0.52;100.00
36380;BME280;22411;53.016;18.632;2023-01-26T03:47:50;101352.31;;;-0.53;100.00
36380;BME280;22411;53.016;18.632;2023-01-26T03:50:35;101348.91;;;-0.52;100.00
36380;BME280;22411;53.016;18.632;2023-01-26T03:53:21;101345.47;;;-0.46;100.00
36380;BME280;22411;53.016;18.632;2023-01-26T03:56:08;101337.00;;;-0.47;100.00
36380;BME280;22411;53.016;18.632;2023-01-26T03:58:49;101342.88;;;-0.42;100.00
36380;BME280;22411;53.016;18.632;2023-01-26T04:01:16;101340.34;;;-0.42;100.00
36380;BME280;22411;53.016;18.632;2023-01-26T04:03:49;101336.91;;;-0.42;100.00
36380;BME280;22411;53.016;18.632;2023-01-26T04:06:34;101339.47;;;-0.42;100.00
36380;BME280;22411;53.016;18.632;2023-01-26T04:09:19;101336.91;;;-0.39;100.00
36380;BME280;22411;53.016;18.632;2023-01-26T04:11:46;101323.28;;;-0.38;100.00
36380;BME280;22411;53.016;18.632;2023-01-26T04:14:13;101313.09;;;-0.35;100.00
36380;BME280;22411;53.016;18.632;2023-01-26T04:17:00;101320.72;;;-0.35;100.00
36380;BME280;22411;53.016;18.632;2023-01-26T04:19:45;101319.88;;;-0.37;100.00
36380;BME280;22411;53.016;18.632;2023-01-26T04:22:30;101329.22;;;-0.38;100.00
36380;BME280;22411;53.016;18.632;2023-01-26T04:24:55;101319.91;;;-0.39;100.00
36380;BME280;22411;53.016;18.632;2023-01-26T04:27:22;101328.34;;;-0.34;100.00
36380;BME280;22411;53.016;18.632;2023-01-26T04:29:48;101324.94;;;-0.31;100.00
36380;BME280;22411;53.016;18.632;2023-01-26T04:32:14;101324.03;;;-0.29;100.00
36380;BME280;22411;53.016;18.632;2023-01-26T04:34:40;101326.53;;;-0.22;100.00
36380;BME280;22411;53.016;18.632;2023-01-26T04:37:07;101324.88;;;-0.25;100.00
36380;BME280;22411;53.016;18.632;2023-01-26T04:39:33;101321.44;;;-0.22;100.00
36380;BME280;22411;53.016;18.632;2023-01-26T04:41:59;101321.44;;;-0.24;100.00
36380;BME280;22411;53.016;18.632;2023-01-26T04:44:25;101318.91;;;-0.24;100.00
36380;BME280;22411;53.016;18.632;2023-01-26T04:46:51;101312.91;;;-0.21;100.00
36380;BME280;22411;53.016;18.632;2023-01-26T04:49:17;101318.84;;;-0.18;100.00
36380;BME280;22411;53.016;18.632;2023-01-26T04:51:43;101312.06;;;-0.19;100.00
36380;BME280;22411;53.016;18.632;2023-01-26T04:54:09;101312.00;;;-0.14;100.00
36380;BME280;22411;53.016;18.632;2023-01-26T04:56:35;101315.34;;;-0.11;100.00
36380;BME280;22411;53.016;18.632;2023-01-26T04:59:04;101307.69;;;-0.09;100.00
36380;BME280;22411;53.016;18.632;2023-01-26T05:01:30;101305.22;;;-0.17;100.00
36380;BME280;22411;53.016;18.632;2023-01-26T05:04:00;101295.88;;;-0.16;100.00
36380;BME280;22411;53.016;18.632;2023-01-26T05:06:27;101297.59;;;-0.17;100.00
36380;BME280;22411;53.016;18.632;2023-01-26T05:08:53;101297.63;;;-0.20;100.00
36380;BME280;22411;53.016;18.632;2023-01-26T05:11:20;101299.28;;;-0.17;100.00
36380;BME280;22411;53.016;18.632;2023-01-26T05:13:46;101297.59;;;-0.17;100.00
36380;BME280;22411;53.016;18.632;2023-01-26T05:16:13;101300.13;;;-0.15;100.00
36380;BME280;22411;53.016;18.632;2023-01-26T05:18:39;101288.19;;;-0.12;100.00
36380;BME280;22411;53.016;18.632;2023-01-26T05:21:06;101298.38;;;-0.12;100.00
36380;BME280;22411;53.016;18.632;2023-01-26T05:23:32;101300.91;;;-0.12;100.00
36380;BME280;22411;53.016;18.632;2023-01-26T05:25:58;101293.34;;;-0.15;100.00
36380;BME280;22411;53.016;18.632;2023-01-26T05:28:24;101298.50;;;-0.21;100.00
36380;BME280;22411;53.016;18.632;2023-01-26T05:30:50;101291.72;;;-0.23;100.00
36380;BME280;22411;53.016;18.632;2023-01-26T05:33:17;101293.41;;;-0.21;100.00
36380;BME280;22411;53.016;18.632;2023-01-26T05:35:50;101294.25;;;-0.20;100.00
36380;BME280;22411;53.016;18.632;2023-01-26T05:38:17;101295.03;;;-0.17;100.00
36380;BME280;22411;53.016;18.632;2023-01-26T05:40:44;101291.63;;;-0.14;100.00
36380;BME280;22411;53.016;18.632;2023-01-26T05:43:11;101296.72;;;-0.14;100.00
36380;BME280;22411;53.016;18.632;2023-01-26T05:45:40;101298.38;;;-0.10;100.00
36380;BME280;22411;53.016;18.632;2023-01-26T05:48:07;101296.66;;;-0.10;100.00
36380;BME280;22411;53.016;18.632;2023-01-26T05:50:36;101299.19;;;-0.08;100.00
36380;BME280;22411;53.016;18.632;2023-01-26T05:53:03;101289.84;;;-0.08;100.00
36380;BME280;22411;53.016;18.632;2023-01-26T05:55:30;101299.13;;;-0.02;100.00
36380;BME280;22411;53.016;18.632;2023-01-26T05:57:55;101293.16;;;0.01;100.00
36380;BME280;22411;53.016;18.632;2023-01-26T06:00:22;101292.31;;;-0.02;100.00
36380;BME280;22411;53.016;18.632;2023-01-26T06:02:48;101293.19;;;-0.04;100.00
36380;BME280;22411;53.016;18.632;2023-01-26T06:05:14;101293.19;;;-0.06;100.00
36380;BME280;22411;53.016;18.632;2023-01-26T06:07:40;101283.88;;;-0.07;100.00
36380;BME280;22411;53.016;18.632;2023-01-26T06:10:07;101283.00;;;-0.04;100.00
36380;BME280;22411;53.016;18.632;2023-01-26T06:12:33;101284.66;;;0.00;100.00
36380;BME280;22411;53.016;18.632;2023-01-26T06:15:01;101286.34;;;0.01;100.00
36380;BME280;22411;53.016;18.632;2023-01-26T06:17:27;101291.44;;;0.01;100.00
36380;BME280;22411;53.016;18.632;2023-01-26T06:19:53;101290.59;;;0.01;100.00
36380;BME280;22411;53.016;18.632;2023-01-26T06:22:19;101290.59;;;-0.01;100.00
36380;BME280;22411;53.016;18.632;2023-01-26T06:24:45;101288.88;;;0.01;100.00
36380;BME280;22411;53.016;18.632;2023-01-26T06:27:13;101281.22;;;0.03;100.00
36380;BME280;22411;53.016;18.632;2023-01-26T06:29:40;101286.28;;;0.04;100.00
36380;BME280;22411;53.016;18.632;2023-01-26T06:32:06;101297.38;;;0.02;100.00
36380;BME280;22411;53.016;18.632;2023-01-26T06:34:35;101290.63;;;-0.03;100.00
36380;BME280;22411;53.016;18.632;2023-01-26T06:37:02;101292.34;;;-0.06;100.00
36380;BME280;22411;53.016;18.632;2023-01-26T06:39:28;101288.09;;;-0.04;100.00
36380;BME280;22411;53.016;18.632;2023-01-26T06:41:54;101296.53;;;-0.01;100.00
36380;BME280;22411;53.016;18.632;2023-01-26T06:44:20;101299.97;;;0.00;100.00
36380;BME280;22411;53.016;18.632;2023-01-26T06:46:46;101300.78;;;0.01;100.00
36380;BME280;22411;53.016;18.632;2023-01-26T06:49:12;101299.09;;;0.01;100.00
36380;BME280;22411;53.016;18.632;2023-01-26T06:52:02;101301.59;;;0.04;100.00
36380;BME280;22411;53.016;18.632;2023-01-26T06:54:29;101301.63;;;0.03;100.00
36380;BME280;22411;53.016;18.632;2023-01-26T06:56:54;101309.25;;;0.03;100.00
36380;BME280;22411;53.016;18.632;2023-01-26T06:59:21;101300.75;;;0.04;100.00
36380;BME280;22411;53.016;18.632;2023-01-26T07:01:47;101307.53;;;0.06;100.00
36380;BME280;22411;53.016;18.632;2023-01-26T07:04:14;101301.59;;;0.06;100.00
36380;BME280;22411;53.016;18.632;2023-01-26T07:06:41;101306.63;;;0.09;100.00
36380;BME280;22411;53.016;18.632;2023-01-26T07:09:09;101302.38;;;0.11;100.00
36380;BME280;22411;53.016;18.632;2023-01-26T07:11:35;101309.94;;;0.15;100.00
36380;BME280;22411;53.016;18.632;2023-01-26T07:14:02;101295.47;;;0.17;100.00
36380;BME280;22411;53.016;18.632;2023-01-26T07:16:28;101293.81;;;0.16;100.00
36380;BME280;22411;53.016;18.632;2023-01-26T07:18:55;101295.41;;;0.20;100.00
36380;BME280;22411;53.016;18.632;2023-01-26T07:21:22;101286.09;;;0.19;100.00
36380;BME280;22411;53.016;18.632;2023-01-26T07:23:49;101301.38;;;0.21;100.00
36380;BME280;22411;53.016;18.632;2023-01-26T07:26:17;101304.75;;;0.23;100.00
36380;BME280;22411;53.016;18.632;2023-01-26T07:28:46;101292.81;;;0.25;100.00
36380;BME280;22411;53.016;18.632;2023-01-26T07:31:12;101297.94;;;0.23;100.00
36380;BME280;22411;53.016;18.632;2023-01-26T07:33:38;101293.66;;;0.27;100.00
36380;BME280;22411;53.016;18.632;2023-01-26T07:36:06;101297.91;;;0.27;100.00
36380;BME280;22411;53.016;18.632;2023-01-26T07:38:36;101300.47;;;0.27;100.00
36380;BME280;22411;53.016;18.632;2023-01-26T07:41:10;101302.13;;;0.29;100.00
36380;BME280;22411;53.016;18.632;2023-01-26T07:43:40;101295.38;;;0.27;100.00
36380;BME280;22411;53.016;18.632;2023-01-26T07:46:08;101297.03;;;0.28;100.00
36380;BME280;22411;53.016;18.632;2023-01-26T07:48:40;101298.66;;;0.32;100.00
36380;BME280;22411;53.016;18.632;2023-01-26T07:51:10;101295.31;;;0.30;100.00
36380;BME280;22411;53.016;18.632;2023-01-26T07:53:41;101290.28;;;0.27;100.00
36380;BME280;22411;53.016;18.632;2023-01-26T07:56:15;101285.16;;;0.25;100.00
36380;BME280;22411;53.016;18.632;2023-01-26T07:58:51;101285.16;;;0.27;100.00
36380;BME280;22411;53.016;18.632;2023-01-26T08:01:19;101284.28;;;0.29;100.00
36380;BME280;22411;53.016;18.632;2023-01-26T08:03:51;101288.56;;;0.27;100.00
36380;BME280;22411;53.016;18.632;2023-01-26T08:06:21;101286.78;;;0.32;100.00
36380;BME280;22411;53.016;18.632;2023-01-26T08:08:48;101287.63;;;0.31;100.00
36380;BME280;22411;53.016;18.632;2023-01-26T08:11:19;101283.38;;;0.33;100.00
36380;BME280;22411;53.016;18.632;2023-01-26T08:13:50;101283.47;;;0.27;100.00
36380;BME280;22411;53.016;18.632;2023-01-26T08:16:20;101284.25;;;0.31;100.00
36380;BME280;22411;53.016;18.632;2023-01-26T08:18:47;101289.31;;;0.34;100.00
36380;BME280;22411;53.016;18.632;2023-01-26T08:21:18;101289.31;;;0.34;100.00
36380;BME280;22411;53.016;18.632;2023-01-26T08:23:50;101290.97;;;0.38;100.00
36380;BME280;22411;53.016;18.632;2023-01-26T08:26:17;101293.44;;;0.42;100.00
36380;BME280;22411;53.016;18.632;2023-01-26T08:28:49;101292.63;;;0.39;100.00
36380;BME280;22411;53.016;18.632;2023-01-26T08:31:20;101296.91;;;0.38;100.00
36380;BME280;22411;53.016;18.632;2023-01-26T08:33:48;101294.34;;;0.38;100.00
36380;BME280;22411;53.016;18.632;2023-01-26T08:36:16;101290.06;;;0.40;100.00
36380;BME280;22411;53.016;18.632;2023-01-26T08:38:44;101300.22;;;0.42;100.00
36380;BME280;22411;53.016;18.632;2023-01-26T08:41:11;101292.59;;;0.43;100.00
36380;BME280;22411;53.016;18.632;2023-01-26T08:43:39;101293.34;;;0.47;100.00
36380;BME280;22411;53.016;18.632;2023-01-26T08:46:07;101290.81;;;0.48;100.00
36380;BME280;22411;53.016;18.632;2023-01-26T08:48:33;101301.78;;;0.52;100.00
36380;BME280;22411;53.016;18.632;2023-01-26T08:51:02;101295.81;;;0.55;100.00
36380;BME280;22411;53.016;18.632;2023-01-26T08:53:31;101299.19;;;0.57;100.00
36380;BME280;22411;53.016;18.632;2023-01-26T08:56:04;101297.47;;;0.59;100.00
36380;BME280;22411;53.016;18.632;2023-01-26T08:58:33;101301.69;;;0.60;100.00
36380;BME280;22411;53.016;18.632;2023-01-26T09:01:04;101295.75;;;0.59;100.00
36380;BME280;22411;53.016;18.632;2023-01-26T09:03:31;101298.25;;;0.64;100.00
36380;BME280;22411;53.016;18.632;2023-01-26T09:06:01;101300.69;;;0.68;100.00
36380;BME280;22411;53.016;18.632;2023-01-26T09:08:32;101296.50;;;0.66;100.00
36380;BME280;22411;53.016;18.632;2023-01-26T09:10:59;101298.19;;;0.67;100.00
36380;BME280;22411;53.016;18.632;2023-01-26T09:13:26;101295.59;;;0.70;100.00
36380;BME280;22411;53.016;18.632;2023-01-26T09:15:52;101300.69;;;0.68;100.00
36380;BME280;22411;53.016;18.632;2023-01-26T09:18:19;101295.59;;;0.70;100.00
36380;BME280;22411;53.016;18.632;2023-01-26T09:20:46;101290.47;;;0.71;100.00
36380;BME280;22411;53.016;18.632;2023-01-26T09:23:13;101292.16;;;0.71;100.00
36380;BME280;22411;53.016;18.632;2023-01-26T09:25:41;101289.59;;;0.74;100.00
36380;BME280;22411;53.016;18.632;2023-01-26T09:28:07;101286.94;;;0.78;100.00
36380;BME280;22411;53.016;18.632;2023-01-26T09:30:33;101288.63;;;0.81;100.00
36380;BME280;22411;53.016;18.632;2023-01-26T09:33:01;101277.53;;;0.82;100.00
36380;BME280;22411;53.016;18.632;2023-01-26T09:35:29;101275.88;;;0.78;100.00
36380;BME280;22411;53.016;18.632;2023-01-26T09:37:57;101273.41;;;0.75;100.00
36380;BME280;22411;53.016;18.632;2023-01-26T09:41:03;101272.56;;;0.73;100.00
36380;BME280;22411;53.016;18.632;2023-01-26T09:43:50;101267.47;;;0.74;100.00
36380;BME280;22411;53.016;18.632;2023-01-26T09:46:26;101274.25;;;0.75;100.00
36380;BME280;22411;53.016;18.632;2023-01-26T09:49:04;101268.25;;;0.76;100.00
36380;BME280;22411;53.016;18.632;2023-01-26T09:54:37;101263.19;;;0.73;100.00
36380;BME280;22411;53.016;18.632;2023-01-26T10:00:07;101255.50;;;0.76;100.00
36380;BME280;22411;53.016;18.632;2023-01-26T10:02:56;101253.75;;;0.80;100.00
36380;BME280;22411;53.016;18.632;2023-01-26T10:08:02;101263.09;;;0.81;100.00
36380;BME280;22411;53.016;18.632;2023-01-26T10:10:33;101252.88;;;0.81;100.00
36380;BME280;22411;53.016;18.632;2023-01-26T10:13:03;101251.97;;;0.84;100.00
36380;BME280;22411;53.016;18.632;2023-01-26T10:15:38;101251.09;;;0.86;100.00
36380;BME280;22411;53.016;18.632;2023-01-26T10:18:28;101252.81;;;0.86;100.00
36380;BME280;22411;53.016;18.632;2023-01-26T10:20:58;101249.41;;;0.85;100.00
36380;BME280;22411;53.016;18.632;2023-01-26T10:23:31;101255.38;;;0.86;100.00
36380;BME280;22411;53.016;18.632;2023-01-26T10:26:19;101241.72;;;0.87;100.00
36380;BME280;22411;53.016;18.632;2023-01-26T10:28:47;101237.44;;;0.89;100.00
36380;BME280;22411;53.016;18.632;2023-01-26T10:31:26;101238.31;;;0.88;100.00
36380;BME280;22411;53.016;18.632;2023-01-26T10:33:57;101234.97;;;0.83;100.00
36380;BME280;22411;53.016;18.632;2023-01-26T10:36:28;101232.50;;;0.78;100.00
36380;BME280;22411;53.016;18.632;2023-01-26T10:39:03;101234.25;;;0.76;100.00
36380;BME280;22411;53.016;18.632;2023-01-26T10:41:31;101229.94;;;0.78;100.00
36380;BME280;22411;53.016;18.632;2023-01-26T10:43:59;101220.50;;;0.83;100.00
36380;BME280;22411;53.016;18.632;2023-01-26T10:46:35;101220.44;;;0.88;100.00
36380;BME280;22411;53.016;18.632;2023-01-26T10:51:36;101223.91;;;0.85;100.00
36380;BME280;22411;53.016;18.632;2023-01-26T10:54:26;101229.00;;;0.85;100.00
36380;BME280;22411;53.016;18.632;2023-01-26T10:56:57;101227.28;;;0.84;100.00
36380;BME280;22411;53.016;18.632;2023-01-26T10:59:34;101224.66;;;0.89;100.00
36380;BME280;22411;53.016;18.632;2023-01-26T11:04:38;101227.22;;;0.90;100.00
36380;BME280;22411;53.016;18.632;2023-01-26T11:07:26;101212.84;;;0.85;100.00
36380;BME280;22411;53.016;18.632;2023-01-26T11:09:54;101227.25;;;0.87;100.00
36380;BME280;22411;53.016;18.632;2023-01-26T11:12:24;101222.88;;;0.94;100.00
36380;BME280;22411;53.016;18.632;2023-01-26T11:15:03;101223.72;;;0.94;100.00
36380;BME280;22411;53.016;18.632;2023-01-26T11:20:45;101210.13;;;0.94;100.00
36380;BME280;22411;53.016;18.632;2023-01-26T11:23:21;101205.84;;;0.94;100.00
36380;BME280;22411;53.016;18.632;2023-01-26T11:31:18;101205.03;;;0.92;100.00
36380;BME280;22411;53.016;18.632;2023-01-26T11:39:42;101203.47;;;0.84;100.00
36380;BME280;22411;53.016;18.632;2023-01-26T11:42:16;101194.97;;;0.85;100.00
36380;BME280;22411;53.016;18.632;2023-01-26T11:45:13;101189.81;;;0.88;100.00
36380;BME280;22411;53.016;18.632;2023-01-26T11:56:09;101179.41;;;0.98;100.00
36380;BME280;22411;53.016;18.632;2023-01-26T11:59:03;101173.47;;;0.98;100.00
36380;BME280;22411;53.016;18.632;2023-01-26T12:01:40;101175.22;;;0.96;100.00
36380;BME280;22411;53.016;18.632;2023-01-26T12:04:17;101180.25;;;1.00;100.00
36380;BME280;22411;53.016;18.632;2023-01-26T12:06:46;101168.31;;;1.01;100.00
36380;BME280;22411;53.016;18.632;2023-01-26T12:09:24;101178.53;;;1.01;100.00
36380;BME280;22411;53.016;18.632;2023-01-26T12:15:11;101168.25;;;1.04;100.00
36380;BME280;22411;53.016;18.632;2023-01-26T12:23:30;101150.28;;;1.09;100.00
36380;BME280;22411;53.016;18.632;2023-01-26T12:26:12;101149.38;;;1.13;100.00
36380;BME280;22411;53.016;18.632;2023-01-26T12:45:29;101144.88;;;1.24;100.00
36380;BME280;22411;53.016;18.632;2023-01-26T12:48:36;101144.00;;;1.25;100.00
36380;BME280;22411;53.016;18.632;2023-01-26T12:51:09;101140.50;;;1.30;100.00
36380;BME280;22411;53.016;18.632;2023-01-26T12:53:53;101147.38;;;1.27;100.00
36380;BME280;22411;53.016;18.632;2023-01-26T12:56:34;101141.41;;;1.28;100.00
36380;BME280;22411;53.016;18.632;2023-01-26T12:59:31;101137.00;;;1.35;100.00
36380;BME280;22411;53.016;18.632;2023-01-26T13:04:43;101138.69;;;1.36;100.00
36380;BME280;22411;53.016;18.632;2023-01-26T13:07:37;101139.53;;;1.36;100.00
36380;BME280;22411;53.016;18.632;2023-01-26T13:10:21;101139.50;;;1.38;100.00
36380;BME280;22411;53.016;18.632;2023-01-26T13:13:24;101138.69;;;1.37;100.00
36380;BME280;22411;53.016;18.632;2023-01-26T13:15:45;101137.78;;;1.38;100.00
36380;BME280;22411;53.016;18.632;2023-01-26T13:18:16;101131.00;;;1.37;100.00
36380;BME280;22411;53.016;18.632;2023-01-26T13:20:46;101131.84;;;1.38;100.00
36380;BME280;22411;53.016;18.632;2023-01-26T13:31:52;101140.56;;;1.27;100.00
36380;BME280;22411;53.016;18.632;2023-01-26T13:36:55;101142.34;;;1.24;100.00
36380;BME280;22411;53.016;18.632;2023-01-26T13:39:34;101133.75;;;1.26;100.00
36380;BME280;22411;53.016;18.632;2023-01-26T13:42:09;101129.53;;;1.25;100.00
36380;BME280;22411;53.016;18.632;2023-01-26T13:44:50;101131.19;;;1.26;100.00
36380;BME280;22411;53.016;18.632;2023-01-26T13:47:23;101131.16;;;1.29;100.00
36380;BME280;22411;53.016;18.632;2023-01-26T13:49:51;101121.81;;;1.28;100.00
36380;BME280;22411;53.016;18.632;2023-01-26T13:52:26;101115.03;;;1.27;100.00
36380;BME280;22411;53.016;18.632;2023-01-26T13:54:54;101112.69;;;1.15;100.00
36380;BME280;22411;53.016;18.632;2023-01-26T13:57:27;101113.50;;;1.19;100.00
36380;BME280;22411;53.016;18.632;2023-01-26T13:59:58;101111.81;;;1.18;100.00
36380;BME280;22411;53.016;18.632;2023-01-26T14:02:27;101110.09;;;1.18;100.00
36380;BME280;22411;53.016;18.632;2023-01-26T14:04:57;101105.88;;;1.16;100.00
36380;BME280;22411;53.016;18.632;2023-01-26T14:07:30;101109.19;;;1.21;100.00
36380;BME280;22411;53.016;18.632;2023-01-26T14:09:59;101118.56;;;1.20;100.00
36380;BME280;22411;53.016;18.632;2023-01-26T14:12:29;101112.69;;;1.17;100.00
36380;BME280;22411;53.016;18.632;2023-01-26T14:14:59;101112.75;;;1.14;100.00
36380;BME280;22411;53.016;18.632;2023-01-26T14:17:45;101116.22;;;1.11;100.00
36380;BME280;22411;53.016;18.632;2023-01-26T14:20:37;101120.41;;;1.14;100.00